Portada
METAR-TAF:

METAR-TAF

Aeropuertos :

Aeropuerto de Copenhague-Roskilde

Roskilde, Dinamarca

latitud: 55-35N, longitud: 012-08E, altitud: 44 m

Observación

El informe se hizo hace 5 minutos, a las 07:20 UTC
Viento 14 kt del oeste
Temperatura 4°C
Humedad 81%
Presión 1009 hPa
Visibilidad 10 km o más

METAR: EKRK 210720Z AUTO 27014KT 9999 SCT025/// 04/01 Q1009

Hora: 08:25 (07:25 UTC)

Pronóstico

El informe se hizo hace 2 horas y 3 minutos, a las 05:22 UTC
Pronóstico válido del 21 a las 06 UTC al 21 a las 15 UTC
Viento 12 kt del oeste
Visibilidad 10 km o más
Nubes dispersas a una altura de 2000 ft
Evolucionando progresivamente
del 21 a las 10 UTC al 21 a las 12 UTC
Viento 22 kt del oeste-suroeste

TAF: EKRK 210522Z 2106/2115 27012KT 9999 SCT020 BECMG 2110/2112 25022KT

Observaciones y pronósticos meteorológicos de más de 4000 aeropuertos (mensajes METAR y TAF).

Los puntos amarillos y rojos representan las estaciones disponibles.

Ponga el ratón en el punto deseado para ver el nombre de la estación.

Haga clic para ver las observaciones y los pronósticos meteorológicos.

Para cambiar el mapa : haga clic en los botones verdes con una cruz de color negro para hacer un zoom, en el botón verde con un guión para alejar o en las flechas verdes para mapas adyacentes.


METAR-TAF: